Time;durP1;ratioP1;P1;durP2;ratioP2;P2;SDS_P1;SDS_P2;PMS_P1;PMS_P2;Temp;Humidity;BMP_temperature;BMP_pressure;BME280_temperature;BME280_humidity;BME280_pressure;Samples;Min_cycle;Max_cycle;Signal;HPM_P1;HPM_P2
2021/11/16 00:00:40;;;;;;;18.75;7.10;;;;;;;10.87;74.91;101320.91;4982455;28;20432;-65
2021/11/16 00:03:25;;;;;;;26.95;9.40;;;;;;;10.91;75.43;101315.69;4980781;28;20487;-65
2021/11/16 00:06:10;;;;;;;14.18;8.73;;;;;;;10.82;74.81;101315.56;4986394;28;20058;-65
2021/11/16 00:08:54;;;;;;;14.55;5.00;;;;;;;10.84;74.33;101318.81;4986926;28;20047;-65
2021/11/16 00:11:39;;;;;;;12.60;6.00;;;;;;;10.81;74.47;101313.97;4994721;28;20135;-65
2021/11/16 00:14:25;;;;;;;9.02;5.43;;;;;;;10.84;74.22;101320.72;4994778;28;20050;-65
2021/11/16 00:17:09;;;;;;;9.25;5.90;;;;;;;10.84;74.28;101313.38;4994527;28;20049;-65
2021/11/16 00:19:54;;;;;;;10.80;6.35;;;;;;;10.69;74.54;101308.22;4994991;28;20053;-65
2021/11/16 00:22:41;;;;;;;16.77;8.02;;;;;;;10.70;74.81;101305.22;4994662;28;20046;-65
2021/11/16 00:25:35;;;;;;;20.40;8.73;;;;;;;10.70;74.28;101296.25;4994190;28;20053;-65
2021/11/16 00:28:22;;;;;;;12.68;7.18;;;;;;;10.55;74.35;101297.34;4994633;28;20568;-65
2021/11/16 00:31:07;;;;;;;18.98;9.55;;;;;;;10.57;75.33;101295.09;4994632;28;20492;-65
2021/11/16 00:33:53;;;;;;;20.70;11.50;;;;;;;10.68;76.27;101293.00;4980288;28;20046;-66
2021/11/16 00:36:38;;;;;;;21.63;8.95;;;;;;;10.58;75.03;101285.84;4993642;28;20042;-65
2021/11/16 00:39:23;;;;;;;18.45;7.78;;;;;;;10.57;75.72;101297.81;4994518;28;20065;-65
2021/11/16 00:42:09;;;;;;;10.20;6.15;;;;;;;10.58;75.79;101285.03;4993583;28;20045;-65
2021/11/16 00:44:54;;;;;;;11.30;5.88;;;;;;;10.53;74.91;101282.41;4994186;28;20518;-65
2021/11/16 00:47:40;;;;;;;11.77;7.80;;;;;;;10.50;74.99;101291.19;4974646;28;20047;-65
2021/11/16 00:50:25;;;;;;;26.85;7.60;;;;;;;10.50;74.64;101288.47;4974777;28;20101;-66
2021/11/16 00:53:10;;;;;;;10.23;4.57;;;;;;;10.36;74.65;101288.47;4974642;28;20043;-65
2021/11/16 00:55:56;;;;;;;14.55;7.53;;;;;;;10.40;76.24;101283.22;4974492;28;20046;-65
2021/11/16 00:58:41;;;;;;;11.95;7.13;;;;;;;10.48;75.31;101277.88;4974493;28;20046;-65
2021/11/16 01:01:25;;;;;;;10.48;6.13;;;;;;;10.54;75.79;101292.19;4978420;28;20042;-65
2021/11/16 01:04:11;;;;;;;9.50;5.72;;;;;;;10.49;75.85;101281.41;4993875;28;20400;-65
2021/11/16 01:06:57;;;;;;;19.40;10.55;;;;;;;10.54;76.39;101279.41;4993170;28;20523;-66
2021/11/16 01:09:42;;;;;;;14.88;6.60;;;;;;;10.53;75.03;101279.69;4993757;28;20046;-66
2021/11/16 01:12:27;;;;;;;18.08;9.93;;;;;;;10.63;75.82;101287.66;4999486;28;20050;-66
2021/11/16 01:15:13;;;;;;;15.05;6.35;;;;;;;10.58;75.88;101285.03;4993550;28;20054;-67
2021/11/16 01:17:58;;;;;;;19.42;9.85;;;;;;;10.57;76.18;101284.22;4985266;28;20035;-67
2021/11/16 01:20:44;;;;;;;13.30;6.13;;;;;;;10.59;76.78;101279.31;4993399;28;20042;-66
2021/11/16 01:23:29;;;;;;;14.65;8.05;;;;;;;10.57;77.03;101269.81;4982720;28;20046;-64
2021/11/16 01:26:14;;;;;;;11.82;6.43;;;;;;;10.57;76.93;101272.53;4993212;28;20061;-66
2021/11/16 01:29:01;;;;;;;;;;;;;;;10.60;77.50;101288.28;4993946;28;20049;-66
2021/11/16 01:31:48;;;;;;;15.20;7.88;;;;;;;10.55;77.44;101274.78;4993279;28;19913;-66
2021/11/16 01:34:33;;;;;;;16.77;7.43;;;;;;;10.61;77.04;101276.28;4993458;28;20046;-66
2021/11/16 01:37:18;;;;;;;17.10;7.88;;;;;;;10.63;77.26;101280.31;4986091;23;20446;-81
2021/11/16 01:40:10;;;;;;;17.40;6.82;;;;;;;10.66;77.02;101271.56;4941606;29;20445;-80
2021/11/16 01:42:56;;;;;;;14.85;8.25;;;;;;;10.68;77.17;101276.69;4923899;29;20035;-79
2021/11/16 01:45:41;;;;;;;12.93;7.28;;;;;;;10.64;76.50;101267.53;4912230;29;20059;-80
2021/11/16 01:48:26;;;;;;;12.43;7.10;;;;;;;10.67;76.89;101267.72;4923999;29;20043;-78
2021/11/16 01:51:11;;;;;;;10.07;6.30;;;;;;;10.64;77.05;101259.38;4953303;29;20051;-79
2021/11/16 01:54:01;;;;;;;;;;;;;;;10.73;77.71;101255.63;4943244;29;20047;-79
2021/11/16 01:56:46;;;;;;;12.23;7.25;;;;;;;10.73;77.12;101262.97;4928775;29;20473;-79
2021/11/16 01:59:31;;;;;;;10.27;5.90;;;;;;;10.73;76.23;101254.81;4942915;28;20043;-79
2021/11/16 02:02:16;;;;;;;17.33;8.43;;;;;;;10.75;77.00;101252.63;4933799;29;20058;-79
2021/11/16 02:05:02;;;;;;;14.40;8.80;;;;;;;10.79;76.59;101253.63;4942092;29;20525;-79
2021/11/16 02:07:48;;;;;;;25.38;10.50;;;;;;;10.85;76.80;101259.75;4938520;29;20408;-81
2021/11/16 02:10:33;;;;;;;16.15;9.27;;;;;;;10.88;76.77;101251.78;4946281;28;20433;-79
2021/11/16 02:13:20;;;;;;;17.65;8.95;;;;;;;10.88;77.30;101245.53;4934144;29;20043;-80
2021/11/16 02:16:05;;;;;;;16.50;8.77;;;;;;;10.89;76.61;101242.53;4935580;29;20495;-79
2021/11/16 02:18:50;;;;;;;12.32;6.50;;;;;;;10.84;75.81;101245.34;4961044;28;20050;-79
2021/11/16 02:21:35;;;;;;;;;;;;;;;10.85;75.82;101240.72;4951441;28;20050;-80
2021/11/16 02:24:20;;;;;;;16.58;9.27;;;;;;;10.82;76.80;101244.84;4973142;28;19914;-79
2021/11/16 02:27:05;;;;;;;18.70;10.73;;;;;;;10.92;77.37;101236.47;4933025;29;20164;-79
2021/11/16 02:29:50;;;;;;;12.95;7.28;;;;;;;10.94;76.79;101239.69;4926378;28;20433;-78
2021/11/16 02:32:35;;;;;;;12.43;7.47;;;;;;;10.82;75.78;101242.13;4948505;29;20426;-79
2021/11/16 02:35:22;;;;;;;13.20;6.28;;;;;;;10.72;75.57;101231.44;4925072;29;20048;-78
2021/11/16 02:38:06;;;;;;;20.55;8.27;;;;;;;10.71;75.50;101221.69;4960654;28;20044;-80
2021/11/16 02:40:53;;;;;;;16.40;6.68;;;;;;;10.65;75.45;101223.72;4940488;29;20054;-77
2021/11/16 02:43:39;;;;;;;15.90;8.43;;;;;;;10.70;75.30;101222.81;4944586;29;20498;-80
2021/11/16 02:46:25;;;;;;;14.52;8.63;;;;;;;10.74;75.49;101223.81;4926639;29;20047;-77
2021/11/16 02:49:09;;;;;;;14.35;6.97;;;;;;;10.72;75.24;101226.00;4940724;29;20047;-79
2021/11/16 02:51:54;;;;;;;11.98;6.13;;;;;;;10.72;75.29;101223.28;4944716;29;20043;-79
2021/11/16 02:54:41;;;;;;;8.70;5.72;;;;;;;10.77;74.96;101228.63;4950525;29;20047;-81
2021/11/16 02:57:26;;;;;;;13.68;7.35;;;;;;;11.00;74.35;101232.22;4957459;28;20070;-80
2021/11/16 03:00:17;;;;;;;14.20;6.78;;;;;;;10.82;75.14;101225.00;4951243;28;20035;-78
2021/11/16 03:03:02;;;;;;;14.05;7.88;;;;;;;10.70;74.88;101226.34;4940628;29;20058;-80
2021/11/16 03:05:47;;;;;;;17.83;8.55;;;;;;;10.66;75.52;101233.50;4956336;28;20050;-81
2021/11/16 03:08:32;;;;;;;11.38;7.05;;;;;;;10.69;75.23;101232.06;4938190;28;20042;-80
2021/11/16 03:11:18;;;;;;;;;;;;;;;10.68;74.63;101225.81;4953823;28;20043;-80
2021/11/16 03:14:03;;;;;;;11.73;7.03;;;;;;;10.68;74.74;101225.00;4955449;28;19919;-80
2021/11/16 03:16:48;;;;;;;10.23;5.65;;;;;;;10.67;74.55;101237.00;4930361;29;20046;-80
2021/11/16 03:19:34;;;;;;;7.65;4.97;;;;;;;10.65;75.23;101231.06;4949662;28;20051;-81
2021/11/16 03:22:23;;;;;;;12.70;5.60;;;;;;;10.62;74.97;101226.22;4939645;29;20058;-80
2021/11/16 03:25:09;;;;;;;12.05;6.18;;;;;;;10.54;74.78;101222.31;4929574;29;20062;-81
2021/11/16 03:27:58;;;;;;;8.63;4.50;;;;;;;10.59;74.86;101235.00;4931526;28;20047;-81
2021/11/16 03:30:44;;;;;;;11.63;5.97;;;;;;;10.54;74.82;101224.22;4952649;28;20055;-77
2021/11/16 03:33:28;;;;;;;14.95;6.72;;;;;;;10.62;75.16;101223.50;4924860;29;20055;-80
2021/11/16 03:36:13;;;;;;;10.38;6.60;;;;;;;10.63;75.75;101223.19;4935142;29;20046;-79
2021/11/16 03:39:00;;;;;;;7.57;4.90;;;;;;;10.69;75.97;101221.19;4950146;29;20046;-79
2021/11/16 03:41:46;;;;;;;11.02;5.63;;;;;;;10.57;74.84;101226.31;4924272;29;20545;-78
2021/11/16 03:44:32;;;;;;;12.95;7.00;;;;;;;10.51;75.47;101211.22;4942507;29;20047;-80
2021/11/16 03:47:19;;;;;;;8.60;5.53;;;;;;;10.48;75.72;101206.38;4951367;29;20055;-80
2021/11/16 03:50:08;;;;;;;16.45;5.70;;;;;;;10.41;74.72;101209.53;4925916;29;20050;-79
2021/11/16 03:52:56;;;;;;;10.77;5.93;;;;;;;10.37;74.53;101207.69;4928515;29;20042;-80
2021/11/16 03:55:43;;;;;;;8.77;5.53;;;;;;;10.33;74.16;101202.06;4943808;29;20039;-78
2021/11/16 03:58:28;;;;;;;9.88;6.07;;;;;;;10.27;74.22;101204.06;4940436;29;20062;-79
2021/11/16 04:01:15;;;;;;;9.23;4.30;;;;;;;10.17;74.43;101208.88;4954971;28;20552;-78
2021/11/16 04:04:01;;;;;;;8.23;5.50;;;;;;;10.02;75.41;101201.78;4956549;29;20062;-81
2021/11/16 04:06:46;;;;;;;9.80;5.97;;;;;;;10.02;75.83;101196.34;4909594;29;20411;-79
2021/11/16 04:09:31;;;;;;;7.57;4.13;;;;;;;10.00;75.56;101205.91;4929176;29;20054;-79
2021/11/16 04:12:16;;;;;;;10.13;4.65;;;;;;;10.06;76.44;101196.53;4943990;29;20059;-80
2021/11/16 04:15:03;;;;;;;9.48;5.45;;;;;;;10.09;77.07;101202.22;4928204;29;20418;-80
2021/11/16 04:17:54;;;;;;;10.05;5.88;;;;;;;10.18;76.17;101195.00;4939364;29;20058;-80
2021/11/16 04:20:42;;;;;;;9.48;5.50;;;;;;;10.14;76.35;101196.69;4942755;29;20043;-80
2021/11/16 04:23:27;;;;;;;8.30;5.78;;;;;;;10.11;76.18;101199.97;4935242;29;20046;-79
2021/11/16 04:26:12;;;;;;;10.52;8.32;;;;;;;10.07;75.63;101200.88;4931107;29;20066;-80
2021/11/16 04:28:57;;;;;;;;;;;;;;;9.99;75.39;101199.69;4924687;29;20070;-83
2021/11/16 04:31:42;;;;;;;12.32;5.45;;;;;;;9.94;74.74;101210.63;4945490;28;19914;-81
2021/11/16 04:34:27;;;;;;;5.85;4.07;;;;;;;9.97;76.40;101210.03;4926330;29;20054;-80
2021/11/16 04:37:11;;;;;;;7.57;5.18;;;;;;;10.10;76.37;101209.25;4934924;29;20050;-80
2021/11/16 04:39:57;;;;;;;12.30;5.38;;;;;;;10.08;76.10;101206.03;4923398;29;20050;-79
2021/11/16 04:42:43;;;;;;;9.40;5.53;;;;;;;10.13;77.11;101197.78;4939481;29;20128;-79
2021/11/16 04:45:27;;;;;;;11.00;5.30;;;;;;;10.08;75.85;101199.78;4940525;29;20050;-81
2021/11/16 04:49:23;;;;;;;7.05;4.43;;;;;;;10.01;75.46;101202.06;4924117;29;20055;-80
2021/11/16 05:02:55;;;;;;;9.82;5.63;;;;;;;9.88;75.88;101203.66;4935048;29;20054;-78
2021/11/16 05:05:40;;;;;;;7.68;3.85;;;;;;;9.88;75.54;101206.38;4955027;29;20050;-78
2021/11/16 05:08:25;;;;;;;9.93;5.32;;;;;;;9.91;74.61;101213.94;4944555;29;20415;-79
2021/11/16 05:11:10;;;;;;;15.77;5.55;;;;;;;9.95;74.83;101214.16;4926949;29;20142;-78
2021/11/16 05:13:55;;;;;;;10.80;5.50;;;;;;;9.97;75.22;101215.47;4939199;29;20043;-79
2021/11/16 05:16:40;;;;;;;6.38;4.15;;;;;;;9.99;75.50;101210.53;4930750;29;20513;-80
2021/11/16 05:19:24;;;;;;;12.82;6.18;;;;;;;10.09;77.08;101210.34;4933077;28;20051;-78
2021/11/16 05:22:09;;;;;;;12.95;4.25;;;;;;;10.06;76.18;101202.78;4936123;29;20055;-79
2021/11/16 05:24:54;;;;;;;10.65;4.95;;;;;;;10.07;75.66;101209.84;4937911;29;20058;-79
2021/11/16 05:27:40;;;;;;;17.27;5.15;;;;;;;10.04;77.17;101223.22;4947033;29;20051;-79
2021/11/16 05:30:28;;;;;;;10.60;6.10;;;;;;;10.08;76.64;101219.59;4940224;28;20039;-79
2021/11/16 05:33:14;;;;;;;9.50;5.47;;;;;;;10.08;76.08;101221.53;4939935;29;20611;-78
2021/11/16 05:35:59;;;;;;;14.00;6.22;;;;;;;10.13;76.21;101219.53;4939688;29;20051;-81
2021/11/16 05:38:49;;;;;;;9.68;5.03;;;;;;;10.14;75.76;101218.41;4945144;28;20097;-81
2021/11/16 05:41:35;;;;;;;8.07;5.35;;;;;;;10.06;75.90;101224.53;4937391;29;20058;-79
2021/11/16 05:44:19;;;;;;;8.30;4.70;;;;;;;10.12;75.31;101222.53;4942939;29;20062;-82
2021/11/16 05:47:05;;;;;;;5.70;4.05;;;;;;;10.04;75.34;101224.03;4940076;29;20058;-81
2021/11/16 05:49:49;;;;;;;;;;;;;;;10.07;75.63;101234.28;4944175;29;20054;-80
2021/11/16 05:52:34;;;;;;;13.23;6.65;;;;;;;10.07;76.04;101228.88;4938315;29;19914;-78
2021/11/16 05:55:19;;;;;;;8.77;4.55;;;;;;;9.98;75.97;101238.81;4931259;28;20047;-81
2021/11/16 05:58:04;;;;;;;9.70;4.97;;;;;;;10.06;76.87;101238.13;4925894;29;20047;-80
2021/11/16 06:00:49;;;;;;;9.52;5.32;;;;;;;10.04;77.66;101234.91;4933168;29;20059;-80
2021/11/16 06:03:34;;;;;;;11.65;6.65;;;;;;;10.19;79.16;101231.94;4926504;28;20521;-78
2021/11/16 06:06:20;;;;;;;;;;;;;;;10.06;76.75;101237.31;4930316;29;20070;-77
2021/11/16 06:09:06;;;;;;;13.45;5.75;;;;;;;10.00;77.64;101233.09;4927988;29;19919;-79
2021/11/16 06:11:51;;;;;;;10.95;5.50;;;;;;;9.92;77.96;101231.84;4954554;29;20047;-78
2021/11/16 06:14:36;;;;;;;8.52;5.13;;;;;;;10.02;78.09;101234.38;4928271;29;20055;-81
2021/11/16 06:17:22;;;;;;;9.32;5.00;;;;;;;9.99;77.36;101234.19;4925870;29;20111;-80
2021/11/16 06:20:09;;;;;;;11.40;6.05;;;;;;;9.96;77.35;101238.28;4954761;29;20050;-81
2021/11/16 06:22:54;;;;;;;10.43;5.57;;;;;;;9.93;77.53;101238.91;4942723;29;20124;-80
2021/11/16 06:25:39;;;;;;;16.40;5.97;;;;;;;10.03;77.88;101236.00;4945692;28;20046;-81
2021/11/16 06:28:24;;;;;;;11.63;5.93;;;;;;;10.02;77.71;101239.00;4930154;29;20070;-80
2021/11/16 06:31:09;;;;;;;11.85;6.15;;;;;;;9.98;77.20;101240.72;4931258;29;20039;-80
2021/11/16 06:33:59;;;;;;;;;;;;;;;10.02;77.47;101250.69;4924450;29;20062;-79
2021/11/16 06:36:44;;;;;;;13.93;6.22;;;;;;;9.95;77.56;101244.84;4935715;29;19918;-81
2021/11/16 06:39:29;;;;;;;10.73;6.13;;;;;;;9.96;76.94;101251.06;4940457;28;20046;-80
2021/11/16 06:42:14;;;;;;;10.48;5.88;;;;;;;9.95;77.45;101253.00;4943015;29;20050;-78
2021/11/16 06:44:59;;;;;;;16.15;6.00;;;;;;;10.00;76.93;101255.63;4925548;29;20059;-79
2021/11/16 06:47:45;;;;;;;10.65;5.10;;;;;;;10.06;77.39;101265.28;4945829;29;20058;-77
2021/11/16 06:50:30;;;;;;;11.88;6.28;;;;;;;10.03;77.31;101263.19;4946739;29;20054;-79
2021/11/16 06:53:36;;;;;;;8.38;5.40;;;;;;;10.01;76.84;101270.81;4950026;28;20051;-77
2021/11/16 06:56:25;;;;;;;11.05;6.68;;;;;;;10.04;76.55;101270.22;4946823;29;20046;-78
2021/11/16 06:59:10;;;;;;;11.30;6.50;;;;;;;10.06;76.93;101272.63;4943248;29;20046;-78
2021/11/16 07:01:55;;;;;;;13.55;7.35;;;;;;;10.08;76.83;101271.25;4943272;29;20414;-80
2021/11/16 07:04:42;;;;;;;14.00;7.80;;;;;;;10.06;76.93;101269.91;4943074;29;20080;-80
2021/11/16 07:07:27;;;;;;;12.10;7.78;;;;;;;10.07;77.77;101266.91;4955928;29;20047;-80
2021/11/16 07:10:17;;;;;;;9.00;4.88;;;;;;;9.97;76.70;101267.06;4957405;29;20039;-80
2021/11/16 07:13:07;;;;;;;12.45;7.72;;;;;;;10.02;76.44;101277.84;4956342;29;20058;-79
2021/11/16 07:15:51;;;;;;;15.13;8.88;;;;;;;10.00;76.47;101274.66;4930583;29;20410;-78
2021/11/16 07:18:51;;;;;;;14.73;7.85;;;;;;;10.14;77.20;101285.53;4942679;29;20047;-78
2021/11/16 07:21:52;;;;;;;21.38;9.25;;;;;;;10.17;76.88;101284.97;4948226;28;20123;-78
2021/11/16 07:24:52;;;;;;;13.98;7.82;;;;;;;10.23;76.94;101283.78;4933637;29;20051;-78
2021/11/16 07:27:46;;;;;;;21.08;8.27;;;;;;;10.20;76.63;101279.75;4950096;29;20044;-78
2021/11/16 07:30:33;;;;;;;14.75;8.88;;;;;;;10.19;76.69;101282.78;4943279;28;20498;-78
2021/11/16 07:33:20;;;;;;;18.70;9.40;;;;;;;10.22;76.73;101291.13;4925359;29;20043;-79
2021/11/16 07:36:08;;;;;;;19.10;8.57;;;;;;;10.28;77.01;101289.13;4928702;29;20503;-77
2021/11/16 07:38:53;;;;;;;20.25;8.80;;;;;;;10.32;76.98;101298.28;4977010;23;20687;-83
2021/11/16 07:41:38;;;;;;;;;;;;;;;10.38;77.04;101301.72;4958487;29;20070;-83
2021/11/16 07:44:22;;;;;;;19.40;9.05;;;;;;;10.39;77.26;101304.16;4954127;29;19919;-82
2021/11/16 07:47:07;;;;;;;;;;;;;;;10.42;77.89;101306.28;4962975;29;20042;-82
2021/11/16 07:49:52;;;;;;;17.98;9.43;;;;;;;10.47;78.31;101299.94;4962265;29;19918;-83
2021/11/16 07:52:38;;;;;;;15.77;8.57;;;;;;;10.50;77.93;101304.78;4953614;28;20039;-83
2021/11/16 07:55:26;;;;;;;;;;;;;;;10.56;78.27;101309.03;4952073;29;20054;-82
2021/11/16 07:58:13;;;;;;;22.90;10.60;;;;;;;10.59;78.25;101316.56;4951911;29;19922;-83
2021/11/16 08:01:01;;;;;;;20.75;11.07;;;;;;;10.63;78.47;101310.22;4950632;29;20417;-83
2021/11/16 08:03:56;;;;;;;24.58;11.73;;;;;;;10.68;78.22;101318.28;4953503;28;20050;-84
2021/11/16 08:06:53;;;;;;;19.50;11.77;;;;;;;10.75;78.15;101312.47;4966241;28;20035;-82
2021/11/16 08:09:42;;;;;;;26.52;11.15;;;;;;;10.81;77.98;101311.25;4960502;28;20043;-83
2021/11/16 08:12:34;;;;;;;26.00;10.93;;;;;;;10.92;78.20;101309.16;4974851;28;20035;-83
2021/11/16 08:15:19;;;;;;;32.58;11.75;;;;;;;11.26;77.25;101308.72;4953842;28;20043;-78
2021/11/16 08:18:10;;;;;;;19.77;10.73;;;;;;;11.47;76.21;101304.44;4962745;28;20031;-77
2021/11/16 08:21:00;;;;;;;27.05;11.55;;;;;;;11.53;76.90;101311.34;4955165;29;20043;-78
2021/11/16 08:23:46;;;;;;;22.83;11.70;;;;;;;11.47;77.54;101304.44;4953621;29;20043;-78
2021/11/16 08:26:49;;;;;;;23.75;11.95;;;;;;;11.51;76.91;101308.97;4953506;29;20051;-77
2021/11/16 08:29:41;;;;;;;28.38;11.43;;;;;;;11.62;76.56;101314.97;4956362;29;20039;-78
2021/11/16 08:32:34;;;;;;;20.10;10.73;;;;;;;11.67;76.31;101312.16;4956848;28;20051;-77
2021/11/16 08:35:22;;;;;;;20.17;10.32;;;;;;;11.65;76.98;101319.00;4936897;29;20031;-78
2021/11/16 08:38:11;;;;;;;25.65;13.75;;;;;;;11.41;77.28;101302.94;4956540;28;20059;-80
2021/11/16 08:40:58;;;;;;;20.98;12.27;;;;;;;11.38;77.83;101301.59;4957046;29;20038;-77
2021/11/16 08:43:43;;;;;;;23.33;10.27;;;;;;;11.52;77.22;101310.56;4949010;29;20055;-78
2021/11/16 08:46:30;;;;;;;20.25;9.30;;;;;;;11.60;77.23;101314.47;4958124;29;20051;-76
2021/11/16 08:49:23;;;;;;;23.23;11.68;;;;;;;11.67;77.17;101317.59;4955181;28;20051;-78
2021/11/16 08:52:18;;;;;;;26.13;13.63;;;;;;;11.68;77.01;101307.50;4958951;28;20055;-78
2021/11/16 08:55:16;;;;;;;24.90;11.60;;;;;;;11.74;76.59;101300.81;4962394;28;20442;-79
2021/11/16 08:58:04;;;;;;;25.60;11.30;;;;;;;11.71;77.03;101302.25;4957499;29;20040;-78
2021/11/16 09:00:52;;;;;;;19.00;10.68;;;;;;;11.78;77.56;101305.38;4955258;29;20501;-79
2021/11/16 09:03:46;;;;;;;22.92;10.52;;;;;;;11.80;77.71;101305.84;4951460;28;20039;-77
2021/11/16 09:06:32;;;;;;;21.58;11.82;;;;;;;11.78;78.08;101302.66;4938682;29;20502;-77
2021/11/16 09:09:17;;;;;;;24.27;12.18;;;;;;;11.82;78.19;101311.81;4948583;29;20043;-78
2021/11/16 09:12:06;;;;;;;16.40;8.82;;;;;;;11.82;77.69;101308.28;4957197;29;20047;-77
2021/11/16 09:14:53;;;;;;;27.80;13.32;;;;;;;11.72;78.33;101314.75;4955751;29;20043;-78
2021/11/16 09:17:39;;;;;;;22.45;12.18;;;;;;;11.87;78.47;101321.78;4957848;28;20047;-79
2021/11/16 09:20:26;;;;;;;21.75;12.57;;;;;;;11.98;77.72;101321.25;4954693;29;20043;-78
2021/11/16 09:23:33;;;;;;;24.27;11.35;;;;;;;11.89;77.86;101319.53;4955020;29;20055;-78
2021/11/16 09:29:24;;;;;;;21.33;10.85;;;;;;;12.09;76.74;101313.59;4941548;28;20059;-78
2021/11/16 09:32:16;;;;;;;21.00;11.48;;;;;;;12.01;76.37;101317.09;4942076;29;20035;-77
2021/11/16 09:35:02;;;;;;;25.30;12.35;;;;;;;11.92;77.20;101313.50;4952583;28;20225;-78
2021/11/16 09:37:48;;;;;;;22.33;11.30;;;;;;;12.06;76.42;101322.41;4950942;28;20502;-77
2021/11/16 09:40:32;;;;;;;17.60;10.50;;;;;;;12.28;75.30;101316.94;4968929;28;20046;-77
2021/11/16 09:43:22;;;;;;;;;;;;;;;12.31;74.38;101320.97;4946288;29;20051;-77
2021/11/16 09:46:13;;;;;;;17.58;9.93;;;;;;;12.46;73.77;101327.94;4954199;29;19919;-76
2021/11/16 09:49:03;;;;;;;18.40;10.90;;;;;;;12.54;72.37;101319.81;4942379;29;20070;-78
2021/11/16 09:52:18;;;;;;;17.60;10.02;;;;;;;12.65;71.85;101323.88;4948011;29;20055;-79
2021/11/16 09:55:09;;;;;;;19.83;10.75;;;;;;;12.84;70.40;101321.72;4930696;29;20043;-79
2021/11/16 09:57:57;;;;;;;17.10;10.15;;;;;;;12.62;71.00;101316.31;4934989;29;20043;-77
2021/11/16 10:00:42;;;;;;;20.42;11.48;;;;;;;12.67;71.26;101312.66;4958002;28;20047;-82
2021/11/16 10:03:27;;;;;;;26.13;11.35;;;;;;;12.95;70.76;101310.53;4963799;28;20054;-83
2021/11/16 10:06:14;;;;;;;15.60;8.68;;;;;;;13.12;70.88;101308.66;4971918;28;20047;-82
2021/11/16 10:09:01;;;;;;;21.67;10.77;;;;;;;13.33;69.65;101308.06;4964464;28;20047;-80
2021/11/16 10:11:51;;;;;;;20.10;11.68;;;;;;;13.46;69.73;101313.38;4963863;28;20043;-79
2021/11/16 10:14:36;;;;;;;16.15;9.90;;;;;;;13.59;68.51;101304.25;4972157;28;20043;-82
2021/11/16 10:17:21;;;;;;;;;;;;;;;13.57;68.78;101309.22;4957123;28;20045;-80
2021/11/16 10:20:08;;;;;;;20.57;10.43;;;;;;;13.70;68.51;101302.00;4971154;28;19929;-80
2021/11/16 10:22:59;;;;;;;20.70;12.52;;;;;;;13.67;68.09;101297.16;4978773;28;20034;-81
2021/11/16 10:25:53;;;;;;;18.98;11.25;;;;;;;13.71;68.05;101290.72;4978197;28;20042;-82
2021/11/16 10:28:44;;;;;;;18.98;11.35;;;;;;;13.82;67.58;101295.88;4948002;29;20039;-80
2021/11/16 10:31:32;;;;;;;18.90;10.38;;;;;;;14.01;67.10;101288.94;4955874;28;20417;-82
2021/11/16 10:34:17;;;;;;;20.60;12.23;;;;;;;14.30;65.76;101282.78;4948454;29;20039;-82
2021/11/16 10:37:07;;;;;;;15.80;8.18;;;;;;;14.39;64.55;101282.75;4950338;29;20042;-80
2021/11/16 10:40:07;;;;;;;16.10;10.52;;;;;;;14.75;63.01;101287.78;4955245;28;20042;-81
2021/11/16 10:42:56;;;;;;;18.88;10.68;;;;;;;15.10;61.42;101289.22;4951312;28;20050;-81
2021/11/16 10:45:44;;;;;;;20.33;10.38;;;;;;;15.26;60.50;101281.22;4978983;28;20050;-80
2021/11/16 10:48:29;;;;;;;19.40;10.93;;;;;;;15.41;59.94;101270.47;4959355;28;20367;-80
2021/11/16 10:51:16;;;;;;;18.98;11.60;;;;;;;15.38;59.58;101270.34;4951244;28;20039;-80
2021/11/16 10:54:04;;;;;;;18.05;9.93;;;;;;;15.53;60.25;101279.94;4954681;28;20042;-80
2021/11/16 10:56:59;;;;;;;33.92;15.05;;;;;;;15.25;59.19;101269.44;4981820;28;20049;-79
2021/11/16 10:59:57;;;;;;;21.05;10.88;;;;;;;15.26;59.52;101270.25;4982254;28;20347;-80
2021/11/16 11:02:41;;;;;;;16.35;10.02;;;;;;;14.96;59.65;101264.81;4950283;29;20573;-80
2021/11/16 11:05:33;;;;;;;;;;;;;;;14.94;59.15;101269.00;4953989;28;20521;-81
2021/11/16 11:08:47;;;;;;;15.55;9.77;;;;;;;14.97;55.88;101265.59;4946483;28;19926;-79
2021/11/16 11:11:38;;;;;;;16.60;10.90;;;;;;;14.96;55.70;101272.22;4941066;28;20050;-79
2021/11/16 11:14:32;;;;;;;17.52;10.38;;;;;;;14.89;55.59;101269.19;4952517;28;20046;-79
2021/11/16 11:17:17;;;;;;;15.27;8.20;;;;;;;14.54;57.77;101266.63;4961104;28;20043;-80
2021/11/16 11:20:05;;;;;;;;;;;;;;;14.49;58.04;101276.94;4946869;28;20076;-80
2021/11/16 11:22:51;;;;;;;21.70;12.80;;;;;;;13.74;59.66;101278.34;4962116;28;19914;-79
2021/11/16 11:25:38;;;;;;;19.13;12.00;;;;;;;13.84;59.80;101274.47;4957560;28;20418;-79
2021/11/16 11:28:41;;;;;;;20.30;12.68;;;;;;;13.60;60.52;101264.06;4949240;28;20040;-80
2021/11/16 11:31:28;;;;;;;27.48;13.68;;;;;;;13.55;61.43;101272.41;4963239;28;20425;-79
2021/11/16 11:34:14;;;;;;;23.92;14.45;;;;;;;13.58;62.12;101277.22;4969196;28;20051;-78
2021/11/16 11:37:04;;;;;;;;;;;;;;;13.50;58.66;101276.13;4967486;28;20043;-79
2021/11/16 11:40:17;;;;;;;23.23;14.02;;;;;;;13.38;57.80;101265.00;4965255;28;19918;-80
2021/11/16 11:43:24;;;;;;;23.90;13.93;;;;;;;13.43;57.26;101264.03;4948135;28;20437;-80
2021/11/16 11:46:09;;;;;;;22.90;14.02;;;;;;;13.36;56.64;101272.72;4965990;28;20046;-79
2021/11/16 11:49:08;;;;;;;17.90;10.32;;;;;;;13.41;56.83;101271.78;4971112;28;20039;-78
2021/11/16 11:51:59;;;;;;;23.15;13.60;;;;;;;13.48;56.71;101269.34;4980871;28;20047;-79
2021/11/16 11:54:44;;;;;;;24.02;14.63;;;;;;;13.53;56.25;101269.19;4967943;28;20035;-80
2021/11/16 11:57:28;;;;;;;25.63;11.63;;;;;;;13.32;56.62;101266.28;4970410;28;20493;-80
2021/11/16 12:00:13;;;;;;;;;;;;;;;13.34;56.56;101261.31;4961313;28;20047;-80
2021/11/16 12:02:59;;;;;;;24.67;14.87;;;;;;;13.24;56.46;101256.16;4956084;28;19918;-80
2021/11/16 12:05:44;;;;;;;24.23;13.70;;;;;;;13.40;56.44;101264.69;4964676;28;20038;-81
2021/11/16 12:08:29;;;;;;;;;;;;;;;13.45;56.12;101256.34;4952629;28;20046;-80
2021/11/16 12:11:14;;;;;;;24.80;13.77;;;;;;;13.47;56.45;101254.88;4965450;28;19914;-83
2021/11/16 12:14:04;;;;;;;25.75;13.40;;;;;;;13.48;56.53;101256.50;4963826;28;20043;-80
2021/11/16 12:16:52;;;;;;;29.50;15.20;;;;;;;13.42;56.44;101251.50;4952255;28;20043;-80
2021/11/16 12:19:41;;;;;;;25.33;13.88;;;;;;;13.39;57.13;101252.16;4969049;28;20042;-80
2021/11/16 12:22:29;;;;;;;23.00;13.23;;;;;;;13.20;56.04;101249.75;4961772;28;20042;-81
2021/11/16 12:25:22;;;;;;;24.63;14.73;;;;;;;13.29;56.89;101245.09;4968166;28;20042;-81
2021/11/16 12:28:21;;;;;;;22.98;13.35;;;;;;;13.21;56.10;101245.84;4969058;28;20042;-80
2021/11/16 12:31:23;;;;;;;24.45;14.20;;;;;;;13.10;56.51;101244.56;4965388;28;20046;-80
2021/11/16 12:34:08;;;;;;;22.80;14.30;;;;;;;13.03;57.54;101250.47;4956135;28;20035;-80
2021/11/16 12:36:53;;;;;;;22.05;14.40;;;;;;;13.20;58.29;101241.53;4966277;28;20047;-80
2021/11/16 12:40:10;;;;;;;19.85;11.27;;;;;;;13.01;58.61;101239.06;4947666;29;20043;-80
2021/11/16 12:43:12;;;;;;;28.73;13.73;;;;;;;12.98;60.30;101233.44;4929136;29;20047;-81
2021/11/16 12:46:01;;;;;;;27.08;14.13;;;;;;;12.76;61.54;101245.25;4961276;29;20039;-80
2021/11/16 12:48:51;;;;;;;26.15;13.57;;;;;;;12.58;60.92;101241.69;4960846;28;20055;-80
2021/11/16 12:51:51;;;;;;;21.75;14.02;;;;;;;12.42;62.49;101240.50;4964199;28;20774;-79
2021/11/16 12:54:37;;;;;;;22.90;13.15;;;;;;;12.40;62.90;101246.25;4961310;28;20047;-79
2021/11/16 12:57:23;;;;;;;23.33;12.35;;;;;;;12.34;63.50;101239.31;4971288;28;20039;-80
2021/11/16 13:00:09;;;;;;;23.48;15.25;;;;;;;12.25;64.70;101246.66;4952097;28;20410;-80
2021/11/16 13:02:55;;;;;;;25.33;15.32;;;;;;;12.14;65.08;101236.34;4955140;28;20043;-81
2021/11/16 13:05:43;;;;;;;18.13;11.63;;;;;;;11.95;65.56;101237.34;4962270;28;20050;-80
2021/11/16 13:08:29;;;;;;;28.58;16.55;;;;;;;11.83;66.55;101234.41;4956023;28;20505;-80
2021/11/16 13:11:14;;;;;;;29.77;18.10;;;;;;;11.90;67.23;101226.59;4968910;28;20035;-82